Portada
METAR-TAF:

METAR-TAF

Aeroports :

Meiringen, Suïssa

latitud: 46-44-25N, longitud: 8-06-36E, altitud: 577 m

Observació

L'informe es va fer fa 30 minuts, a les 17:50 UTC
Vent 4 kt del Nord/Nord-Est, variant entre Nord-Oest i Est
Temperatura 23°C
Humitat 36%
Pressió 1013 hPa
Visibilitat 10 km o més

METAR: LSMM 021750Z AUTO 02004KT 310V090 9999NDV NCD 23/07 Q1013 RMK

Hora: 20:20 (18:20 UTC)


TAF: manca

Observacions i pronòstics meteorològics de més de 4000 aeroports (METAR i TAF).

Les estacions disponibles són els punts grocs i vermells al mapa.

Posi el ratolí al punt desitjat per veure el nom de l'estació.

Feu clic per veure les observacions i els pronòstics meteorològics.

Per canviar el mapa: feu clic els botons verds amb una creu de color negre per apropar; al botó verd amb un guió per allunyar la imatge; o en les fletxes verdes per a mapes adjacents.


METAR-TAF: